Time;durP1;ratioP1;P1;durP2;ratioP2;P2;SDS_P1;SDS_P2;PMS_P1;PMS_P2;Temp;Humidity;BMP_temperature;BMP_pressure;BME280_temperature;BME280_humidity;BME280_pressure;Samples;Min_cycle;Max_cycle;Signal;HPM_P1;HPM_P2
2022/12/06 00:02:00;;;;;;;17.27;11.13;;;;;;;;;;5041121;28;20501;-66
2022/12/06 00:04:28;;;;;;;16.43;10.73;;;;;;;;;;5040616;28;20832;-66
2022/12/06 00:06:58;;;;;;;20.63;12.40;;;;;;;;;;5040886;28;20660;-66
2022/12/06 00:09:27;;;;;;;17.90;10.90;;;;;;;;;;5040688;28;20436;-66
2022/12/06 00:11:55;;;;;;;16.17;10.57;;;;;;;;;;5040110;28;20259;-66
2022/12/06 00:14:24;;;;;;;16.73;11.03;;;;;;;;;;5040398;28;21013;-66
2022/12/06 00:16:54;;;;;;;15.47;10.73;;;;;;;;;;5039726;28;20207;-66
2022/12/06 00:19:23;;;;;;;18.43;10.23;;;;;;;;;;5040430;28;20267;-66
2022/12/06 00:21:51;;;;;;;18.43;10.97;;;;;;;;;;5040426;28;20211;-66
2022/12/06 00:24:25;;;;;;;20.90;12.40;;;;;;;;;;5040184;28;20730;-66
2022/12/06 00:26:53;;;;;;;18.60;11.70;;;;;;;;;;5040183;28;20480;-66
2022/12/06 00:29:22;;;;;;;18.87;11.50;;;;;;;;;;5040550;28;20446;-66
2022/12/06 00:31:50;;;;;;;16.57;10.77;;;;;;;;;;5040028;28;21000;-65
2022/12/06 00:34:22;;;;;;;17.10;10.70;;;;;;;;;;5040383;28;20466;-65
2022/12/06 00:36:50;;;;;;;20.87;11.83;;;;;;;;;;5039991;28;20537;-66
2022/12/06 00:39:18;;;;;;;15.60;9.87;;;;;;;;;;5040075;28;20442;-66
2022/12/06 00:41:48;;;;;;;14.07;10.07;;;;;;;;;;5039377;28;20501;-66
2022/12/06 00:44:16;;;;;;;16.40;10.90;;;;;;;;;;5039263;28;20504;-66
2022/12/06 00:46:44;;;;;;;17.87;11.93;;;;;;;;;;5038794;28;20459;-66
2022/12/06 00:49:13;;;;;;;20.57;11.90;;;;;;;;;;5039516;28;20541;-66
2022/12/06 00:51:41;;;;;;;16.00;10.73;;;;;;;;;;5039771;28;20474;-66
2022/12/06 00:54:13;;;;;;;16.30;11.00;;;;;;;;;;5039931;28;20505;-66
2022/12/06 00:56:41;;;;;;;16.20;10.70;;;;;;;;;;5039338;28;20494;-66
2022/12/06 00:59:11;;;;;;;19.53;10.90;;;;;;;;;;5039912;28;20457;-66
2022/12/06 01:01:39;;;;;;;13.67;10.10;;;;;;;;;;5040154;28;20864;-66
2022/12/06 01:04:08;;;;;;;17.43;10.30;;;;;;;;;;5039365;28;20545;-65
2022/12/06 01:06:36;;;;;;;17.50;12.40;;;;;;;;;;5039660;28;20477;-66
2022/12/06 01:09:05;;;;;;;14.90;9.87;;;;;;;;;;5039510;28;20455;-65
2022/12/06 01:11:34;;;;;;;15.70;10.90;;;;;;;;;;5039415;28;20481;-66
2022/12/06 01:14:02;;;;;;;18.10;10.73;;;;;;;;;;5039203;28;20486;-65
2022/12/06 01:16:32;;;;;;;16.20;9.87;;;;;;;;;;5038144;28;21047;-66
2022/12/06 01:19:01;;;;;;;17.03;11.13;;;;;;;;;;5039665;28;20451;-66
2022/12/06 01:21:29;;;;;;;18.07;10.53;;;;;;;;;;5039467;28;20446;-67
2022/12/06 01:23:57;;;;;;;15.67;10.30;;;;;;;;;;5039501;28;20554;-65
2022/12/06 01:26:26;;;;;;;16.00;10.57;;;;;;;;;;5038916;28;20456;-66
2022/12/06 01:28:58;;;;;;;15.67;10.90;;;;;;;;;;5039473;28;20456;-66
2022/12/06 01:31:26;;;;;;;14.67;10.13;;;;;;;;;;5039356;28;20442;-65
2022/12/06 01:34:03;;;;;;;21.13;11.20;;;;;;;;;;5038943;28;20489;-66
2022/12/06 01:36:31;;;;;;;15.40;10.23;;;;;;;;;;5039171;28;20449;-65
2022/12/06 01:39:05;;;;;;;17.23;10.23;;;;;;;;;;5038999;28;20968;-66
2022/12/06 01:41:33;;;;;;;18.37;10.87;;;;;;;;;;5038453;28;20565;-65
2022/12/06 01:44:01;;;;;;;18.17;10.57;;;;;;;;;;5038782;28;20489;-65
2022/12/06 01:46:31;;;;;;;19.13;11.50;;;;;;;;;;5038257;28;20541;-66
2022/12/06 01:49:08;;;;;;;15.73;10.30;;;;;;;;;;5039092;28;20443;-66
2022/12/06 01:51:36;;;;;;;20.00;10.50;;;;;;;;;;5038592;28;20446;-66
2022/12/06 01:54:07;;;;;;;16.00;10.83;;;;;;;;;;5038470;28;20485;-66
2022/12/06 01:56:36;;;;;;;21.47;12.07;;;;;;;;;;5038468;28;20589;-66
2022/12/06 01:59:05;;;;;;;17.03;11.77;;;;;;;;;;5038837;28;20489;-65
2022/12/06 02:01:34;;;;;;;17.77;11.33;;;;;;;;;;5025593;28;20457;-65
2022/12/06 02:04:02;;;;;;;20.60;12.63;;;;;;;;;;5038752;28;21007;-66
2022/12/06 02:06:32;;;;;;;22.20;11.00;;;;;;;;;;5038759;28;20520;-66
2022/12/06 02:09:02;;;;;;;18.17;11.87;;;;;;;;;;5038257;28;20933;-65
2022/12/06 02:11:30;;;;;;;18.03;11.03;;;;;;;;;;5038210;28;20534;-66
2022/12/06 02:14:03;;;;;;;18.83;10.80;;;;;;;;;;5038261;28;20514;-66
2022/12/06 02:16:40;;;;;;;17.23;11.37;;;;;;;;;;5037406;28;20835;-65
2022/12/06 02:19:18;;;;;;;19.80;12.83;;;;;;;;;;5038164;28;20933;-66
2022/12/06 02:21:51;;;;;;;22.97;11.43;;;;;;;;;;5038406;28;20473;-66
2022/12/06 02:24:33;;;;;;;21.80;12.33;;;;;;;;;;5037954;28;20490;-66
2022/12/06 02:27:08;;;;;;;20.70;12.47;;;;;;;;;;5035453;28;20504;-66
2022/12/06 02:30:01;;;;;;;24.30;16.37;;;;;;;;;;5038054;28;20884;-66
2022/12/06 02:32:34;;;;;;;34.97;17.93;;;;;;;;;;5037966;28;20457;-66
2022/12/06 02:35:08;;;;;;;30.73;21.03;;;;;;;;;;5037813;28;20545;-66
2022/12/06 02:37:38;;;;;;;35.23;21.43;;;;;;;;;;5036488;28;20454;-66
2022/12/06 02:40:07;;;;;;;39.23;21.90;;;;;;;;;;5036508;28;20462;-65
2022/12/06 02:42:37;;;;;;;30.90;19.40;;;;;;;;;;5037515;28;20548;-66
2022/12/06 02:45:09;;;;;;;30.10;17.80;;;;;;;;;;5034924;28;20478;-65
2022/12/06 02:47:38;;;;;;;31.67;18.33;;;;;;;;;;5036855;28;20458;-65
2022/12/06 02:50:08;;;;;;;28.50;16.77;;;;;;;;;;5037412;28;20495;-66
2022/12/06 02:52:38;;;;;;;25.90;15.57;;;;;;;;;;5030861;28;20442;-65
2022/12/06 02:55:06;;;;;;;20.93;14.07;;;;;;;;;;5037230;28;20463;-65
2022/12/06 02:57:42;;;;;;;27.57;14.47;;;;;;;;;;5037340;28;20478;-65
2022/12/06 03:00:30;;;;;;;25.47;14.93;;;;;;;;;;5037623;28;20473;-65
2022/12/06 03:03:03;;;;;;;28.13;14.23;;;;;;;;;;5037569;28;20439;-65
2022/12/06 03:05:35;;;;;;;26.77;13.77;;;;;;;;;;5037351;28;20537;-66
2022/12/06 03:08:05;;;;;;;26.47;14.33;;;;;;;;;;5037201;28;20509;-66
2022/12/06 03:10:39;;;;;;;32.20;14.80;;;;;;;;;;5037051;28;20462;-65
2022/12/06 03:13:12;;;;;;;20.50;12.70;;;;;;;;;;5037283;28;20915;-65
2022/12/06 03:15:44;;;;;;;21.90;13.17;;;;;;;;;;5036074;28;20454;-66
2022/12/06 03:18:18;;;;;;;26.23;13.33;;;;;;;;;;5037834;28;20450;-66
2022/12/06 03:20:49;;;;;;;24.23;13.50;;;;;;;;;;5036952;28;20442;-66
2022/12/06 03:23:20;;;;;;;26.87;14.00;;;;;;;;;;5037649;28;20450;-66
2022/12/06 03:25:48;;;;;;;26.50;14.50;;;;;;;;;;5037186;28;20442;-66
2022/12/06 03:28:17;;;;;;;25.63;13.83;;;;;;;;;;5037562;28;20469;-66
2022/12/06 03:30:47;;;;;;;21.87;13.73;;;;;;;;;;5037389;28;20565;-65
2022/12/06 03:33:18;;;;;;;24.80;14.63;;;;;;;;;;5037581;28;20474;-66
2022/12/06 03:35:47;;;;;;;30.43;14.03;;;;;;;;;;5037452;28;20454;-66
2022/12/06 03:38:18;;;;;;;27.03;15.37;;;;;;;;;;5037395;28;20446;-66
2022/12/06 03:40:48;;;;;;;20.33;14.03;;;;;;;;;;5037504;28;20569;-66
2022/12/06 03:43:16;;;;;;;20.00;12.10;;;;;;;;;;5037214;28;20521;-65
2022/12/06 03:45:46;;;;;;;19.77;12.43;;;;;;;;;;5036007;28;20486;-64
2022/12/06 03:48:16;;;;;;;22.50;14.20;;;;;;;;;;5037052;28;20810;-63
2022/12/06 03:50:47;;;;;;;22.00;13.17;;;;;;;;;;5037391;28;20454;-63
2022/12/06 03:53:16;;;;;;;20.30;12.83;;;;;;;;;;5036941;28;20454;-63
2022/12/06 03:55:44;;;;;;;22.93;12.53;;;;;;;;;;5037146;28;20449;-64
2022/12/06 03:58:12;;;;;;;20.50;12.43;;;;;;;;;;5032373;28;20602;-64
2022/12/06 04:00:40;;;;;;;21.63;13.57;;;;;;;;;;5035570;28;20453;-62
2022/12/06 04:03:09;;;;;;;25.00;12.93;;;;;;;;;;5036383;28;20446;-63
2022/12/06 04:05:37;;;;;;;22.80;12.47;;;;;;;;;;5036100;28;20484;-63
2022/12/06 04:08:06;;;;;;;21.83;12.80;;;;;;;;;;5034847;28;20941;-63
2022/12/06 04:10:34;;;;;;;24.27;13.27;;;;;;;;;;5032813;28;20950;-63
2022/12/06 04:13:04;;;;;;;17.40;11.30;;;;;;;;;;5036985;28;20492;-63
2022/12/06 04:15:33;;;;;;;24.70;12.70;;;;;;;;;;5032553;28;20481;-63
2022/12/06 04:18:09;;;;;;;15.63;11.93;;;;;;;;;;5036615;28;20521;-63
2022/12/06 04:23:29;;;;;;;25.37;13.20;;;;;;;;;;5040203;28;20462;-63
2022/12/06 04:25:57;;;;;;;22.67;12.23;;;;;;;;;;5040208;28;20504;-63
2022/12/06 04:39:28;;;;;;;21.10;12.10;;;;;;;;;;5040141;28;20949;-63
2022/12/06 04:44:42;;;;;;;19.80;12.30;;;;;;;;;;5039983;28;20502;-63
2022/12/06 04:47:10;;;;;;;22.77;13.47;;;;;;;;;;5040237;28;20460;-63
2022/12/06 04:49:38;;;;;;;19.07;11.87;;;;;;;;;;5039872;28;20929;-63
2022/12/06 04:52:07;;;;;;;19.73;12.73;;;;;;;;;;5040164;28;20485;-62
2022/12/06 04:54:37;;;;;;;22.17;13.37;;;;;;;;;;5039805;28;20492;-62
2022/12/06 04:57:10;;;;;;;19.20;12.17;;;;;;;;;;5038671;28;20860;-63
2022/12/06 04:59:38;;;;;;;18.90;11.03;;;;;;;;;;5039674;28;20554;-63
2022/12/06 05:02:07;;;;;;;18.53;12.23;;;;;;;;;;5039684;28;20933;-62
2022/12/06 05:04:35;;;;;;;19.93;11.87;;;;;;;;;;5039395;28;20492;-64
2022/12/06 05:07:03;;;;;;;20.13;13.57;;;;;;;;;;5039565;28;20528;-63
2022/12/06 05:09:31;;;;;;;19.97;13.80;;;;;;;;;;5039530;28;20473;-63
2022/12/06 05:12:00;;;;;;;22.43;13.63;;;;;;;;;;5039214;28;20465;-63
2022/12/06 05:14:28;;;;;;;16.60;11.93;;;;;;;;;;5039247;28;20853;-63
2022/12/06 05:16:56;;;;;;;22.03;13.50;;;;;;;;;;5039639;28;20502;-63
2022/12/06 05:19:24;;;;;;;21.30;13.03;;;;;;;;;;5026235;28;20945;-63
2022/12/06 05:21:52;;;;;;;20.23;12.83;;;;;;;;;;5039427;28;20457;-63
2022/12/06 05:24:20;;;;;;;21.40;12.70;;;;;;;;;;5039459;28;20533;-63
2022/12/06 05:26:48;;;;;;;22.60;13.53;;;;;;;;;;5039011;28;20530;-63
2022/12/06 05:29:18;;;;;;;23.03;13.27;;;;;;;;;;5036447;28;20565;-63
2022/12/06 05:31:46;;;;;;;24.47;13.83;;;;;;;;;;5039049;28;20458;-63
2022/12/06 05:34:15;;;;;;;19.00;12.17;;;;;;;;;;5039165;28;20486;-63
2022/12/06 05:36:44;;;;;;;25.40;13.50;;;;;;;;;;5039128;28;20474;-63
2022/12/06 05:39:12;;;;;;;20.20;13.60;;;;;;;;;;5039068;28;20454;-63
2022/12/06 05:41:40;;;;;;;21.63;13.30;;;;;;;;;;5038351;28;20501;-62
2022/12/06 05:44:09;;;;;;;21.53;12.63;;;;;;;;;;5038810;28;20501;-63
2022/12/06 05:46:39;;;;;;;22.47;12.90;;;;;;;;;;5038805;28;20477;-63
2022/12/06 05:49:07;;;;;;;21.43;12.80;;;;;;;;;;5038995;28;20457;-63
2022/12/06 05:51:34;;;;;;;25.30;13.33;;;;;;;;;;5038946;28;20529;-63
2022/12/06 05:54:05;;;;;;;20.10;12.13;;;;;;;;;;5038723;28;20501;-63
2022/12/06 05:56:33;;;;;;;20.80;11.70;;;;;;;;;;5037562;28;20891;-63
2022/12/06 05:59:02;;;;;;;19.10;11.70;;;;;;;;;;5031355;28;20504;-63
2022/12/06 06:01:30;;;;;;;24.10;12.70;;;;;;;;;;5037604;28;20453;-63
2022/12/06 06:04:00;;;;;;;21.20;12.00;;;;;;;;;;5037596;28;20565;-63
2022/12/06 06:06:28;;;;;;;16.50;10.33;;;;;;;;;;5038797;28;20530;-63
2022/12/06 06:08:56;;;;;;;19.33;12.10;;;;;;;;;;5036421;28;20801;-63
2022/12/06 06:11:24;;;;;;;21.17;11.63;;;;;;;;;;5038524;28;20478;-63
2022/12/06 06:13:53;;;;;;;18.73;11.97;;;;;;;;;;5038389;28;20497;-63
2022/12/06 06:16:21;;;;;;;20.70;12.03;;;;;;;;;;5038400;28;20481;-63
2022/12/06 06:18:49;;;;;;;20.73;11.83;;;;;;;;;;5038193;28;20808;-63
2022/12/06 06:21:19;;;;;;;19.43;11.87;;;;;;;;;;5038473;28;20449;-63
2022/12/06 06:23:47;;;;;;;17.13;11.03;;;;;;;;;;5038152;28;20474;-63
2022/12/06 06:26:15;;;;;;;17.07;11.40;;;;;;;;;;5037677;28;20451;-63
2022/12/06 06:28:43;;;;;;;18.73;12.27;;;;;;;;;;5037817;28;20496;-62
2022/12/06 06:31:11;;;;;;;19.27;10.73;;;;;;;;;;5037888;28;20453;-63
2022/12/06 06:33:39;;;;;;;19.90;11.93;;;;;;;;;;5037811;28;20829;-63
2022/12/06 06:36:07;;;;;;;18.30;11.60;;;;;;;;;;5037855;28;21015;-63
2022/12/06 06:38:37;;;;;;;20.53;12.23;;;;;;;;;;5037357;28;20450;-63
2022/12/06 06:41:05;;;;;;;21.73;13.37;;;;;;;;;;5036687;28;20474;-63
2022/12/06 06:43:33;;;;;;;22.63;12.70;;;;;;;;;;5037633;28;21000;-62
2022/12/06 06:46:02;;;;;;;20.77;12.77;;;;;;;;;;5038138;28;20518;-63
2022/12/06 06:48:32;;;;;;;20.00;13.53;;;;;;;;;;5037542;28;20553;-63
2022/12/06 06:51:02;;;;;;;19.23;11.67;;;;;;;;;;5037855;28;20447;-63
2022/12/06 06:53:30;;;;;;;21.20;12.17;;;;;;;;;;5037633;28;20504;-63
2022/12/06 06:55:59;;;;;;;23.97;14.33;;;;;;;;;;5037024;28;20482;-63
2022/12/06 06:58:27;;;;;;;25.57;13.40;;;;;;;;;;5037567;28;20493;-63
2022/12/06 07:00:56;;;;;;;19.53;11.70;;;;;;;;;;5037765;28;20447;-63
2022/12/06 07:03:25;;;;;;;20.63;12.70;;;;;;;;;;5037382;28;20442;-63
2022/12/06 07:05:53;;;;;;;23.57;14.03;;;;;;;;;;5036141;28;20984;-63
2022/12/06 07:08:21;;;;;;;19.47;12.97;;;;;;;;;;5035807;28;20497;-63
2022/12/06 07:10:50;;;;;;;22.30;13.10;;;;;;;;;;5037369;28;20458;-63
2022/12/06 07:13:23;;;;;;;19.13;10.93;;;;;;;;;;5037410;28;20874;-63
2022/12/06 07:15:51;;;;;;;23.80;12.77;;;;;;;;;;5037522;28;20525;-63
2022/12/06 07:18:19;;;;;;;23.80;12.40;;;;;;;;;;5030521;28;20467;-63
2022/12/06 07:20:48;;;;;;;19.20;13.07;;;;;;;;;;5037595;28;20505;-63
2022/12/06 07:23:16;;;;;;;26.17;13.23;;;;;;;;;;5037484;28;20517;-62
2022/12/06 07:25:44;;;;;;;26.57;15.03;;;;;;;;;;5037224;28;20526;-62
2022/12/06 07:28:12;;;;;;;23.43;13.47;;;;;;;;;;5037407;28;20518;-62
2022/12/06 07:30:42;;;;;;;21.27;12.70;;;;;;;;;;5037295;28;20449;-63
2022/12/06 07:33:10;;;;;;;29.33;14.93;;;;;;;;;;5037148;28;20442;-63
2022/12/06 07:35:38;;;;;;;24.97;15.00;;;;;;;;;;5037021;28;20486;-62
2022/12/06 07:38:26;;;;;;;23.30;13.23;;;;;;;;;;5033998;28;20457;-63
2022/12/06 07:40:54;;;;;;;23.13;13.27;;;;;;;;;;5036883;28;20469;-62
2022/12/06 07:46:18;;;;;;;29.37;14.90;;;;;;;;;;5037195;28;20446;-63
2022/12/06 07:48:49;;;;;;;31.67;16.37;;;;;;;;;;5037157;28;20504;-63
2022/12/06 07:51:18;;;;;;;30.80;15.87;;;;;;;;;;5037038;28;20934;-63
2022/12/06 07:53:46;;;;;;;30.37;15.30;;;;;;;;;;5040175;28;20470;-63
2022/12/06 07:56:13;;;;;;;33.23;15.57;;;;;;;;;;5040655;28;20494;-63
2022/12/06 07:58:41;;;;;;;30.13;16.33;;;;;;;;;;5041162;28;20530;-63
2022/12/06 08:01:10;;;;;;;37.60;17.00;;;;;;;;;;5038473;28;21998;-63
2022/12/06 08:03:39;;;;;;;35.60;17.70;;;;;;;;;;5040302;28;20535;-63
2022/12/06 08:06:08;;;;;;;31.97;16.80;;;;;;;;;;5040697;28;20541;-63
2022/12/06 08:08:36;;;;;;;40.13;18.67;;;;;;;;;;5040976;28;20442;-63
2022/12/06 08:11:05;;;;;;;44.00;17.90;;;;;;;;;;5040240;28;20496;-63
2022/12/06 08:13:34;;;;;;;40.37;17.07;;;;;;;;;;5040749;28;20549;-63
2022/12/06 08:16:04;;;;;;;41.57;19.20;;;;;;;;;;5040507;28;20482;-63
2022/12/06 08:18:32;;;;;;;40.03;18.03;;;;;;;;;;5040723;28;20445;-63
2022/12/06 08:21:01;;;;;;;36.57;17.40;;;;;;;;;;5040466;28;20878;-63
2022/12/06 08:23:29;;;;;;;36.27;19.03;;;;;;;;;;5040210;28;20526;-63
2022/12/06 08:26:01;;;;;;;30.13;16.60;;;;;;;;;;5040083;28;20443;-63
2022/12/06 08:28:30;;;;;;;37.17;16.93;;;;;;;;;;5039336;28;20497;-63
2022/12/06 08:30:58;;;;;;;47.20;18.40;;;;;;;;;;5039775;28;20458;-63
2022/12/06 08:33:32;;;;;;;34.57;17.73;;;;;;;;;;5040080;28;20466;-63
2022/12/06 08:36:07;;;;;;;39.03;16.83;;;;;;;;;;5040444;28;20544;-63
2022/12/06 08:38:35;;;;;;;38.43;18.70;;;;;;;;;;5040116;28;20482;-63
2022/12/06 08:41:03;;;;;;;36.43;16.47;;;;;;;;;;5038450;28;20496;-63
2022/12/06 08:43:32;;;;;;;34.37;16.37;;;;;;;;;;5039388;28;20505;-63
2022/12/06 08:46:00;;;;;;;37.00;17.20;;;;;;;;;;5039290;28;20454;-63
2022/12/06 08:48:28;;;;;;;27.20;14.00;;;;;;;;;;5039847;28;20449;-63
2022/12/06 08:50:56;;;;;;;27.33;13.30;;;;;;;;;;5039887;28;20517;-63
2022/12/06 08:53:25;;;;;;;28.17;13.70;;;;;;;;;;5040060;28;20470;-63
2022/12/06 08:55:54;;;;;;;26.37;14.90;;;;;;;;;;5039301;28;20523;-63
2022/12/06 08:58:29;;;;;;;24.87;13.17;;;;;;;;;;5039132;28;20784;-63
2022/12/06 09:00:57;;;;;;;20.43;12.43;;;;;;;;;;5039615;28;20459;-63
2022/12/06 09:03:26;;;;;;;22.10;12.77;;;;;;;;;;5039732;28;20446;-63
2022/12/06 09:05:54;;;;;;;21.97;11.70;;;;;;;;;;5038052;28;20469;-63
2022/12/06 09:08:22;;;;;;;21.23;11.53;;;;;;;;;;5039902;28;20451;-63
2022/12/06 09:10:52;;;;;;;24.33;12.53;;;;;;;;;;5039439;28;20450;-63
2022/12/06 09:13:20;;;;;;;25.07;12.90;;;;;;;;;;5039558;28;20449;-63
2022/12/06 09:15:48;;;;;;;20.77;11.07;;;;;;;;;;5039532;28;20545;-63
2022/12/06 09:18:16;;;;;;;24.57;13.30;;;;;;;;;;5039649;28;20435;-63
2022/12/06 09:20:44;;;;;;;25.33;12.00;;;;;;;;;;5039572;28;20458;-64
2022/12/06 09:23:12;;;;;;;17.20;10.63;;;;;;;;;;5039214;28;20966;-63
2022/12/06 09:25:41;;;;;;;20.47;9.13;;;;;;;;;;5038973;28;20485;-63
2022/12/06 09:28:10;;;;;;;18.27;9.27;;;;;;;;;;5039213;28;20833;-63
2022/12/06 09:30:38;;;;;;;22.57;11.70;;;;;;;;;;5036921;28;20477;-63
2022/12/06 09:33:06;;;;;;;21.67;11.87;;;;;;;;;;5038612;28;20454;-63
2022/12/06 09:35:35;;;;;;;20.83;10.07;;;;;;;;;;5039277;28;20474;-63
2022/12/06 09:38:03;;;;;;;18.03;10.43;;;;;;;;;;5037358;28;20919;-63
2022/12/06 09:40:32;;;;;;;18.87;9.33;;;;;;;;;;5038230;28;20553;-63
2022/12/06 09:43:24;;;;;;;17.27;8.63;;;;;;;;;;5038677;28;20945;-63
2022/12/06 09:45:59;;;;;;;13.87;8.97;;;;;;;;;;5039171;28;20485;-63
2022/12/06 09:48:38;;;;;;;16.53;9.03;;;;;;;;;;5039012;28;20445;-63
2022/12/06 09:51:19;;;;;;;16.50;9.07;;;;;;;;;;5036949;28;20452;-63
2022/12/06 09:53:54;;;;;;;18.77;9.13;;;;;;;;;;5038629;28;20500;-63
2022/12/06 09:56:25;;;;;;;19.83;10.20;;;;;;;;;;5036259;28;20454;-63
2022/12/06 09:59:03;;;;;;;18.60;9.40;;;;;;;;;;5037745;28;20465;-63
2022/12/06 10:01:36;;;;;;;19.10;9.70;;;;;;;;;;5038493;28;20911;-63
2022/12/06 10:04:12;;;;;;;14.50;7.87;;;;;;;;;;5038294;28;20474;-63
2022/12/06 10:06:44;;;;;;;17.00;9.57;;;;;;;;;;5038820;28;20525;-63
2022/12/06 10:09:20;;;;;;;15.03;8.00;;;;;;;;;;5038619;28;20450;-63
2022/12/06 10:11:57;;;;;;;17.93;9.77;;;;;;;;;;5038230;28;20449;-63
2022/12/06 10:14:35;;;;;;;20.00;10.00;;;;;;;;;;5038163;28;20981;-63
2022/12/06 10:17:06;;;;;;;17.57;9.77;;;;;;;;;;5038323;28;20537;-63
2022/12/06 10:19:43;;;;;;;17.40;10.07;;;;;;;;;;5037117;28;20580;-63
2022/12/06 10:22:15;;;;;;;17.20;10.17;;;;;;;;;;5038386;28;20446;-63
2022/12/06 10:24:53;;;;;;;15.63;8.73;;;;;;;;;;5037818;28;20494;-63
2022/12/06 10:27:23;;;;;;;21.10;10.77;;;;;;;;;;5038238;28;20477;-63
2022/12/06 10:29:56;;;;;;;16.33;9.57;;;;;;;;;;5038808;28;20470;-62
2022/12/06 10:32:42;;;;;;;15.87;9.63;;;;;;;;;;5038270;28;20478;-63
2022/12/06 10:35:15;;;;;;;21.60;10.87;;;;;;;;;;5031202;28;20477;-63
2022/12/06 10:37:47;;;;;;;17.90;8.87;;;;;;;;;;5037889;28;20526;-63
2022/12/06 10:40:17;;;;;;;20.53;10.80;;;;;;;;;;5037851;28;20442;-63
2022/12/06 10:42:49;;;;;;;18.43;10.50;;;;;;;;;;5037571;28;20493;-63
2022/12/06 10:48:15;;;;;;;20.87;9.90;;;;;;;;;;5036882;28;20454;-63
2022/12/06 10:50:45;;;;;;;19.43;9.27;;;;;;;;;;5037995;28;20457;-63
2022/12/06 10:53:15;;;;;;;18.43;10.57;;;;;;;;;;5037119;28;20462;-63
2022/12/06 10:55:47;;;;;;;18.87;10.50;;;;;;;;;;5037768;28;20514;-64
2022/12/06 10:58:17;;;;;;;19.40;10.03;;;;;;;;;;5036834;28;20486;-63
2022/12/06 11:00:52;;;;;;;20.17;10.97;;;;;;;;;;5037326;28;20553;-63
2022/12/06 11:03:22;;;;;;;25.53;11.43;;;;;;;;;;5037828;28;20565;-63
2022/12/06 11:05:53;;;;;;;17.67;10.40;;;;;;;;;;5037517;28;20454;-63
2022/12/06 11:08:25;;;;;;;18.80;10.17;;;;;;;;;;5037668;28;20481;-63
2022/12/06 11:10:54;;;;;;;19.50;10.03;;;;;;;;;;5037285;28;21160;-63
2022/12/06 11:13:29;;;;;;;20.43;11.40;;;;;;;;;;5037705;28;20450;-64
2022/12/06 11:16:00;;;;;;;20.40;11.13;;;;;;;;;;5037773;28;20446;-63
2022/12/06 11:18:29;;;;;;;20.27;9.40;;;;;;;;;;5037506;28;20489;-63
2022/12/06 11:21:00;;;;;;;23.57;10.83;;;;;;;;;;5037554;28;20890;-63
2022/12/06 11:23:35;;;;;;;18.60;10.60;;;;;;;;;;5036526;28;20474;-63
2022/12/06 11:26:06;;;;;;;15.90;9.77;;;;;;;;;;5037165;28;20453;-63
2022/12/06 11:28:36;;;;;;;20.73;11.27;;;;;;;;;;5040231;28;20448;-63
2022/12/06 11:31:12;;;;;;;19.60;10.67;;;;;;;;;;5040467;28;20972;-63
2022/12/06 11:33:40;;;;;;;17.20;9.93;;;;;;;;;;5041423;28;20458;-63
2022/12/06 11:36:09;;;;;;;19.33;10.60;;;;;;;;;;5041600;28;20446;-63
2022/12/06 11:38:39;;;;;;;19.37;10.63;;;;;;;;;;5041248;28;20512;-64
2022/12/06 11:41:10;;;;;;;22.03;11.37;;;;;;;;;;5040384;28;20557;-63
2022/12/06 11:43:38;;;;;;;15.37;9.20;;;;;;;;;;5040990;28;20524;-63
2022/12/06 11:46:08;;;;;;;20.33;10.60;;;;;;;;;;5041015;28;20454;-63
2022/12/06 11:48:36;;;;;;;19.97;10.50;;;;;;;;;;5041117;28;20934;-63
2022/12/06 11:51:05;;;;;;;13.90;8.47;;;;;;;;;;5041074;28;20466;-63
2022/12/06 11:53:37;;;;;;;17.17;9.07;;;;;;;;;;5041004;28;20477;-63
2022/12/06 11:56:10;;;;;;;18.53;11.27;;;;;;;;;;5040826;28;20446;-63
2022/12/06 11:58:40;;;;;;;17.70;9.43;;;;;;;;;;5040382;28;20565;-63
2022/12/06 12:01:13;;;;;;;18.33;10.33;;;;;;;;;;5040700;28;20808;-63
2022/12/06 12:03:42;;;;;;;17.47;10.37;;;;;;;;;;5040769;28;20478;-63
2022/12/06 12:06:16;;;;;;;21.70;10.53;;;;;;;;;;5040869;28;20442;-63
2022/12/06 12:08:52;;;;;;;16.30;10.03;;;;;;;;;;5041028;28;20480;-63
2022/12/06 12:11:21;;;;;;;18.33;9.90;;;;;;;;;;5040648;28;20446;-64
2022/12/06 12:13:50;;;;;;;18.70;10.57;;;;;;;;;;5040415;28;20865;-63
2022/12/06 12:16:22;;;;;;;17.83;10.00;;;;;;;;;;5040784;28;20450;-63
2022/12/06 12:18:52;;;;;;;22.93;11.50;;;;;;;;;;5040410;28;20485;-63
2022/12/06 12:21:29;;;;;;;21.13;10.37;;;;;;;;;;5040727;28;20473;-63
2022/12/06 12:23:57;;;;;;;15.97;10.03;;;;;;;;;;5040177;28;20549;-63
2022/12/06 12:26:34;;;;;;;18.83;10.47;;;;;;;;;;5040305;28;20575;-63
2022/12/06 12:29:04;;;;;;;20.43;10.83;;;;;;;;;;5039443;28;20826;-63
2022/12/06 12:31:45;;;;;;;24.23;10.57;;;;;;;;;;5040413;28;20446;-63
2022/12/06 12:34:14;;;;;;;18.93;11.23;;;;;;;;;;5040367;28;20505;-63
2022/12/06 12:36:47;;;;;;;20.10;10.47;;;;;;;;;;5040303;28;20454;-63
2022/12/06 12:39:26;;;;;;;19.40;11.47;;;;;;;;;;5038857;28;20486;-63
2022/12/06 12:41:54;;;;;;;23.00;11.03;;;;;;;;;;5039842;28;20470;-63
2022/12/06 12:44:26;;;;;;;20.60;10.90;;;;;;;;;;5040180;28;20509;-63
2022/12/06 12:47:16;;;;;;;23.23;12.23;;;;;;;;;;5040019;28;20938;-63
2022/12/06 12:49:44;;;;;;;19.33;10.73;;;;;;;;;;5039708;28;20442;-63
2022/12/06 12:52:28;;;;;;;20.50;11.73;;;;;;;;;;5040273;28;20442;-63
2022/12/06 12:55:02;;;;;;;23.67;11.30;;;;;;;;;;5039440;28;20829;-63
2022/12/06 12:57:30;;;;;;;26.27;12.33;;;;;;;;;;5038380;28;20506;-63
2022/12/06 12:59:58;;;;;;;26.17;13.20;;;;;;;;;;5037357;28;20482;-63
2022/12/06 13:02:29;;;;;;;25.97;12.60;;;;;;;;;;5039199;28;20509;-63
2022/12/06 13:04:59;;;;;;;20.63;11.93;;;;;;;;;;5039812;28;20532;-63
2022/12/06 13:07:49;;;;;;;24.03;12.37;;;;;;;;;;5039285;28;20439;-63
2022/12/06 13:10:30;;;;;;;21.07;12.27;;;;;;;;;;5039131;28;20457;-63
2022/12/06 13:13:01;;;;;;;19.00;11.20;;;;;;;;;;5039329;28;20873;-63
2022/12/06 13:15:32;;;;;;;28.07;13.57;;;;;;;;;;5039825;28;20814;-63
2022/12/06 13:18:07;;;;;;;26.67;11.73;;;;;;;;;;5040042;28;20438;-63
2022/12/06 13:20:35;;;;;;;21.13;11.83;;;;;;;;;;5039313;28;20938;-63
2022/12/06 13:23:05;;;;;;;22.20;14.73;;;;;;;;;;5039160;28;20496;-63
2022/12/06 13:25:33;;;;;;;21.73;11.13;;;;;;;;;;5039283;28;20529;-63
2022/12/06 13:28:03;;;;;;;26.07;13.30;;;;;;;;;;5039496;28;20454;-63
2022/12/06 13:30:33;;;;;;;22.67;11.27;;;;;;;;;;5039171;28;21012;-63
2022/12/06 13:33:04;;;;;;;21.70;11.93;;;;;;;;;;5039444;28;20446;-63
2022/12/06 13:35:35;;;;;;;24.57;13.17;;;;;;;;;;5026386;28;20452;-63
2022/12/06 13:38:19;;;;;;;25.57;12.87;;;;;;;;;;5038934;28;20442;-63
2022/12/06 13:40:53;;;;;;;24.30;12.50;;;;;;;;;;5038547;28;20474;-63
2022/12/06 13:43:57;;;;;;;20.00;11.93;;;;;;;;;;5038873;28;20513;-63
2022/12/06 13:46:27;;;;;;;22.83;12.00;;;;;;;;;;5038911;28;21894;-63
2022/12/06 13:48:58;;;;;;;28.03;13.30;;;;;;;;;;5038882;28;20778;-63
2022/12/06 13:51:40;;;;;;;21.73;12.70;;;;;;;;;;5037855;28;20515;-63
2022/12/06 13:54:35;;;;;;;18.37;9.87;;;;;;;;;;5038921;28;20478;-64
2022/12/06 13:57:19;;;;;;;15.77;10.07;;;;;;;;;;5038228;28;20460;-63
2022/12/06 13:59:47;;;;;;;16.70;9.90;;;;;;;;;;5038118;28;20517;-63
2022/12/06 14:02:34;;;;;;;19.43;9.50;;;;;;;;;;5038902;28;20481;-63
2022/12/06 14:05:33;;;;;;;17.60;9.90;;;;;;;;;;5037322;28;20478;-63
2022/12/06 14:08:01;;;;;;;17.10;9.67;;;;;;;;;;5038242;28;20532;-63
2022/12/06 14:10:29;;;;;;;17.30;9.73;;;;;;;;;;5038209;28;21139;-63
2022/12/06 14:12:58;;;;;;;15.10;10.07;;;;;;;;;;5038605;28;20446;-64
2022/12/06 14:15:26;;;;;;;18.23;10.07;;;;;;;;;;5037203;28;21052;-63
2022/12/06 14:17:55;;;;;;;18.47;10.40;;;;;;;;;;5038489;28;20442;-63
2022/12/06 14:20:41;;;;;;;16.03;9.87;;;;;;;;;;5038139;28;20814;-63
2022/12/06 14:23:21;;;;;;;15.30;9.97;;;;;;;;;;5038132;28;20517;-63
2022/12/06 14:25:49;;;;;;;17.03;10.50;;;;;;;;;;5038040;28;20446;-63
2022/12/06 14:28:18;;;;;;;17.53;10.17;;;;;;;;;;5038486;28;20442;-63
2022/12/06 14:30:46;;;;;;;19.10;10.33;;;;;;;;;;5038424;28;20470;-63
2022/12/06 14:33:18;;;;;;;19.77;10.43;;;;;;;;;;5038353;28;20453;-63
2022/12/06 14:35:51;;;;;;;18.57;10.63;;;;;;;;;;5038103;28;20442;-63
2022/12/06 14:38:21;;;;;;;20.13;11.70;;;;;;;;;;5038519;28;20486;-63
2022/12/06 14:43:34;;;;;;;18.63;11.33;;;;;;;;;;5037311;28;20486;-63
2022/12/06 14:46:03;;;;;;;19.20;10.97;;;;;;;;;;5037200;28;20556;-64
2022/12/06 14:50:22;;;;;;;15.07;9.77;;;;;;;;;;5037839;28;20534;-63
2022/12/06 14:51:22;;;;;;;13.57;9.07;;;;;;;;;;5037691;28;20474;-63
2022/12/06 14:53:51;;;;;;;13.83;8.20;;;;;;;;;;5037707;28;20494;-63
2022/12/06 14:56:23;;;;;;;13.13;8.73;;;;;;;;;;5037351;28;20457;-63
2022/12/06 14:58:52;;;;;;;12.83;7.67;;;;;;;;;;5037926;28;20442;-63
2022/12/06 15:01:21;;;;;;;11.17;6.80;;;;;;;;;;5037817;28;20445;-63
2022/12/06 15:03:57;;;;;;;13.40;7.60;;;;;;;;;;5037024;28;20502;-63
2022/12/06 15:06:27;;;;;;;11.53;7.70;;;;;;;;;;5034132;28;20453;-63